Time;durP1;ratioP1;P1;durP2;ratioP2;P2;SDS_P1;SDS_P2;PMS_P1;PMS_P2;Temp;Humidity;BMP_temperature;BMP_pressure;BME280_temperature;BME280_humidity;BME280_pressure;Samples;Min_cycle;Max_cycle;Signal;HPM_P1;HPM_P2
2022/12/14 04:40:47;;;;;;;;;;;;;;;;;;;;;
2022/12/14 07:33:23;;;;;;;22.97;6.83;;;;;;;16.55;nan;100337.53;6194372;23;20423;-95
2022/12/14 08:51:44;;;;;;;51.57;6.50;;;;;;;16.87;nan;100285.53;6187859;23;20367;-88
2022/12/14 08:54:18;;;;;;;32.83;5.37;;;;;;;17.02;nan;100276.69;6138388;23;20495;-93
2022/12/14 08:56:46;;;;;;;27.97;4.70;;;;;;;17.12;nan;100263.09;6161508;23;21011;-95
2022/12/14 08:59:19;;;;;;;44.13;6.17;;;;;;;17.17;nan;100256.78;6136325;23;20400;-92
2022/12/14 09:02:08;;;;;;;50.20;4.90;;;;;;;17.26;nan;100261.66;6165738;23;20400;-93
2022/12/14 09:04:37;;;;;;;30.00;4.77;;;;;;;17.34;nan;100256.81;6113594;23;20975;-93
2022/12/14 09:07:05;;;;;;;43.47;5.40;;;;;;;17.44;nan;100263.34;6112890;23;20408;-94
2022/12/14 09:09:36;;;;;;;33.47;5.27;;;;;;;17.43;nan;100260.84;6112870;23;20895;-93
2022/12/14 09:12:07;;;;;;;32.77;5.43;;;;;;;17.54;nan;100265.44;6138399;23;20450;-93
2022/12/14 09:15:24;;;;;;;28.93;5.17;;;;;;;17.61;nan;100266.09;6136827;23;20447;-94
2022/12/14 09:18:18;;;;;;;30.47;6.27;;;;;;;17.67;nan;100256.00;6187425;23;20954;-93
2022/12/14 09:20:46;;;;;;;38.77;5.03;;;;;;;17.69;nan;100249.16;6161824;23;20430;-93
2022/12/14 09:23:29;;;;;;;42.50;6.53;;;;;;;17.69;nan;100243.63;6137690;23;20918;-92
2022/12/14 09:26:29;;;;;;;23.47;4.83;;;;;;;17.85;nan;100273.16;6161040;23;20396;-93
2022/12/14 09:29:17;;;;;;;23.17;4.13;;;;;;;17.95;nan;100267.78;6160969;23;20420;-93
2022/12/14 09:31:53;;;;;;;24.63;4.57;;;;;;;17.96;nan;100252.03;6161862;23;20408;-94
2022/12/14 09:34:28;;;;;;;25.47;4.10;;;;;;;18.03;nan;100240.78;6114186;23;20479;-93
2022/12/14 09:37:06;;;;;;;35.07;4.73;;;;;;;18.17;nan;100253.16;6113728;23;20478;-93
2022/12/14 09:40:26;;;;;;;30.17;4.60;;;;;;;18.26;nan;100251.63;6161708;23;20412;-93
2022/12/14 09:43:44;;;;;;;33.83;4.67;;;;;;;18.35;nan;100250.06;6186443;23;20440;-93
2022/12/14 09:46:54;;;;;;;52.33;5.13;;;;;;;18.42;nan;100260.94;6160816;23;20423;-94
2022/12/14 09:49:28;;;;;;;31.83;3.90;;;;;;;18.52;nan;100261.91;6096714;23;20756;-93
2022/12/14 09:52:48;;;;;;;25.30;4.00;;;;;;;18.59;nan;100259.81;6072910;23;20529;-94
2022/12/14 09:55:51;;;;;;;26.33;3.23;;;;;;;18.68;nan;100243.56;6010472;23;20516;-93
2022/12/14 09:58:57;;;;;;;24.93;3.10;;;;;;;18.79;nan;100277.75;5987361;23;20477;-94
2022/12/14 10:02:31;;;;;;;21.60;3.53;;;;;;;18.76;nan;100245.88;6009719;23;20424;-94
2022/12/14 10:09:05;;;;;;;23.33;3.80;;;;;;;19.35;nan;100270.03;5927101;24;20527;-93
2022/12/14 10:12:28;;;;;;;28.40;4.70;;;;;;;19.58;nan;100237.28;5927215;24;20416;-94
2022/12/14 10:15:59;;;;;;;23.63;4.67;;;;;;;19.91;nan;100249.97;5990816;23;20449;-94
2022/12/14 10:18:49;;;;;;;28.93;4.90;;;;;;;20.09;nan;100245.09;5971553;23;20421;-93
2022/12/14 10:21:59;;;;;;;23.07;3.77;;;;;;;19.99;nan;100237.56;6010321;23;20484;-94
2022/12/14 10:24:51;;;;;;;36.20;4.10;;;;;;;19.97;nan;100223.13;5935894;24;20415;-95
2022/12/14 10:27:25;;;;;;;24.97;3.97;;;;;;;19.96;nan;100227.00;5980186;24;20423;-93
2022/12/14 10:30:10;;;;;;;33.33;4.77;;;;;;;19.99;nan;100227.28;5989545;23;20411;-93
2022/12/14 10:32:38;;;;;;;25.10;4.53;;;;;;;20.03;nan;100224.78;6015109;23;20767;-91
2022/12/14 10:35:38;;;;;;;23.23;3.83;;;;;;;20.09;nan;100242.31;5991466;23;20907;-92
2022/12/14 10:41:48;;;;;;;27.70;3.70;;;;;;;20.15;nan;100252.34;6038325;23;20551;-92
2022/12/14 10:45:14;;;;;;;32.23;4.30;;;;;;;20.12;nan;100269.53;6013966;23;20519;-92
2022/12/14 10:48:26;;;;;;;27.87;3.60;;;;;;;19.95;nan;100278.03;6018555;23;20428;-91
2022/12/14 10:51:24;;;;;;;17.80;2.70;;;;;;;19.78;nan;100267.09;6014836;23;20420;-91
2022/12/14 10:54:37;;;;;;;24.17;3.43;;;;;;;19.78;nan;100283.75;6014621;23;20412;-92
2022/12/14 10:57:05;;;;;;;28.30;3.93;;;;;;;19.72;nan;100254.28;6014728;23;20419;-92
2022/12/14 10:59:36;;;;;;;45.73;5.10;;;;;;;19.63;nan;100245.63;5991945;23;20507;-91
2022/12/14 11:02:39;;;;;;;44.00;4.70;;;;;;;19.60;nan;100253.66;6111216;23;20415;-91
2022/12/14 11:05:34;;;;;;;35.47;4.13;;;;;;;19.49;nan;100247.13;6136762;23;20443;-92
2022/12/14 11:08:07;;;;;;;28.50;4.00;;;;;;;19.41;nan;100231.00;6160128;23;20411;-91
2022/12/14 11:10:38;;;;;;;40.23;4.93;;;;;;;19.37;nan;100229.03;6161591;23;20475;-92
2022/12/14 11:13:48;;;;;;;31.80;4.30;;;;;;;19.33;nan;100229.56;6136832;23;20786;-92
2022/12/14 11:16:36;;;;;;;32.13;4.23;;;;;;;19.22;nan;100229.75;6160041;23;20448;-92
2022/12/14 11:19:18;;;;;;;34.90;4.00;;;;;;;19.05;nan;100227.06;6160282;23;20404;-91
2022/12/14 11:22:12;;;;;;;33.13;4.80;;;;;;;19.02;nan;100235.09;6141286;23;20407;-91
2022/12/14 11:25:37;;;;;;;36.93;5.27;;;;;;;18.98;nan;100240.31;6162289;23;20526;-91
2022/12/14 11:28:35;;;;;;;31.00;6.07;;;;;;;18.96;nan;100240.56;6142039;23;20550;-92
2022/12/14 11:31:13;;;;;;;24.10;5.10;;;;;;;19.03;nan;100234.81;6117753;23;20419;-92
2022/12/14 11:33:59;;;;;;;36.53;5.80;;;;;;;19.11;nan;100237.09;6115501;23;20419;-92
2022/12/14 11:36:44;;;;;;;24.30;4.23;;;;;;;19.18;nan;100215.56;6138594;23;20440;-90
2022/12/14 11:39:23;;;;;;;18.10;4.07;;;;;;;19.23;nan;100212.03;6162674;23;20480;-91
2022/12/14 11:42:03;;;;;;;39.17;5.33;;;;;;;19.23;nan;100212.84;6138137;23;20495;-90
2022/12/14 11:44:35;;;;;;;32.53;3.90;;;;;;;19.31;nan;100200.44;6156597;23;20448;-92
2022/12/14 11:47:13;;;;;;;27.43;3.80;;;;;;;19.42;nan;100215.22;6156970;23;20405;-91
2022/12/14 11:50:21;;;;;;;32.00;4.93;;;;;;;19.53;nan;100217.00;6108806;23;20401;-91
2022/12/14 11:53:09;;;;;;;23.37;3.93;;;;;;;19.65;nan;100195.44;6132055;23;20413;-92
2022/12/14 11:56:03;;;;;;;29.77;5.00;;;;;;;19.76;nan;100190.81;6156863;23;20571;-91
2022/12/14 11:58:39;;;;;;;22.93;3.93;;;;;;;19.83;nan;100194.16;6156345;23;20479;-91
2022/12/14 12:01:23;;;;;;;23.73;4.13;;;;;;;19.81;nan;100179.75;6158043;23;20982;-91
2022/12/14 12:04:22;;;;;;;26.40;4.20;;;;;;;19.85;nan;100191.97;6157031;23;20417;-91
2022/12/14 12:07:22;;;;;;;23.57;3.43;;;;;;;19.76;nan;100215.78;6157075;23;20408;-91
2022/12/14 12:10:20;;;;;;;26.50;2.87;;;;;;;19.53;nan;100276.03;6155897;23;20496;-92
2022/12/14 12:13:33;;;;;;;7.77;1.10;;;;;;;18.71;nan;100269.91;6156382;23;20475;-91
2022/12/14 12:16:15;;;;;;;6.93;1.97;;;;;;;18.22;nan;100278.13;6181127;23;20515;-91
2022/12/14 12:19:06;;;;;;;11.83;1.10;;;;;;;18.09;nan;100303.38;6156629;23;20535;-92
2022/12/14 12:21:43;;;;;;;14.60;1.77;;;;;;;17.68;nan;100283.41;6016850;23;20798;-91
2022/12/14 12:24:51;;;;;;;9.40;1.20;;;;;;;17.54;nan;100271.78;5970061;23;20427;-90
2022/12/14 12:27:47;;;;;;;7.87;1.23;;;;;;;17.31;nan;100204.84;6039549;23;20499;-91
2022/12/14 12:30:27;;;;;;;6.60;1.30;;;;;;;17.31;nan;100166.16;6015304;23;20420;-91
2022/12/14 12:33:37;;;;;;;8.40;0.97;;;;;;;17.33;nan;100152.91;5997385;23;20412;-91
2022/12/14 12:36:31;;;;;;;9.37;1.40;;;;;;;17.39;nan;100146.38;6026257;23;20524;-91
2022/12/14 12:39:24;;;;;;;12.27;0.93;;;;;;;17.45;nan;100139.84;6015856;23;20979;-91
2022/12/14 12:42:31;;;;;;;6.47;0.90;;;;;;;17.61;nan;100128.75;5904868;24;20560;-91
2022/12/14 12:45:02;;;;;;;8.13;0.73;;;;;;;17.75;nan;100129.25;5904989;24;20506;-91
2022/12/14 12:48:17;;;;;;;8.53;1.27;;;;;;;17.90;nan;100112.84;6068381;23;20527;-91
2022/12/14 12:51:53;;;;;;;5.40;0.93;;;;;;;18.06;nan;100107.53;6068049;23;20495;-91
2022/12/14 12:54:53;;;;;;;7.63;1.00;;;;;;;18.12;nan;100107.31;5893420;24;20503;-91
2022/12/14 12:57:25;;;;;;;10.30;1.43;;;;;;;18.18;nan;100122.88;5926945;24;20419;-91
2022/12/14 12:59:55;;;;;;;11.20;1.43;;;;;;;18.24;nan;100123.78;5926605;24;20420;-91
2022/12/14 13:02:52;;;;;;;7.80;0.93;;;;;;;18.30;nan;100120.78;5904014;24;20913;-91
2022/12/14 13:05:43;;;;;;;8.17;1.07;;;;;;;18.27;nan;100103.91;5926532;24;20431;-91
2022/12/14 13:08:31;;;;;;;7.50;1.60;;;;;;;18.19;nan;100107.97;5926968;24;20479;-91
2022/12/14 13:11:16;;;;;;;11.10;2.03;;;;;;;18.16;nan;100091.88;5926553;24;20420;-91
2022/12/14 13:14:07;;;;;;;15.93;1.60;;;;;;;18.17;nan;100093.53;5905764;24;20541;-92
2022/12/14 13:16:38;;;;;;;12.70;1.57;;;;;;;18.17;nan;100090.78;5926594;24;21007;-91
2022/12/14 13:19:44;;;;;;;8.33;1.37;;;;;;;18.27;nan;100104.75;5998979;23;20409;-92
2022/12/14 13:22:28;;;;;;;7.67;1.57;;;;;;;18.19;nan;100079.47;6016041;23;20420;-91
2022/12/14 13:25:05;;;;;;;11.13;2.03;;;;;;;18.28;nan;100094.47;6015509;23;20483;-92
2022/12/14 13:28:22;;;;;;;13.87;2.07;;;;;;;18.28;nan;100100.00;6016008;23;20512;-91
2022/12/14 13:34:43;;;;;;;13.10;1.90;;;;;;;18.25;nan;100101.41;6156869;23;20491;-91
2022/12/14 13:48:36;;;;;;;17.07;2.07;;;;;;;18.22;nan;100084.47;6187251;23;20380;-92
2022/12/14 13:51:36;;;;;;;11.93;2.60;;;;;;;18.29;nan;100096.16;6112387;23;20419;-91
2022/12/14 13:54:29;;;;;;;8.80;1.47;;;;;;;18.28;nan;100103.63;6160486;23;20970;-91
2022/12/14 13:57:20;;;;;;;31.37;10.17;;;;;;;18.28;nan;100100.84;6160874;23;20888;-91
2022/12/14 14:00:01;;;;;;;19.93;5.80;;;;;;;18.26;nan;100105.00;6185759;23;20472;-91
2022/12/14 14:02:52;;;;;;;8.57;2.70;;;;;;;18.25;nan;100100.56;6160390;23;20452;-91
2022/12/14 14:05:53;;;;;;;11.23;2.60;;;;;;;18.18;nan;100086.91;6067438;23;20415;-92
2022/12/14 14:08:50;;;;;;;14.20;2.00;;;;;;;18.23;nan;100086.16;6066886;23;20419;-92
2022/12/14 14:11:43;;;;;;;12.37;3.37;;;;;;;18.29;nan;100066.56;6042967;23;20750;-91
2022/12/14 14:14:45;;;;;;;17.13;4.40;;;;;;;18.38;nan;100072.47;5909013;24;20445;-91
2022/12/14 14:17:29;;;;;;;28.40;5.10;;;;;;;18.33;nan;100049.44;5935905;24;20897;-91
2022/12/14 14:20:02;;;;;;;18.70;3.37;;;;;;;18.41;nan;100069.19;5954412;24;20451;-92
2022/12/14 14:22:43;;;;;;;25.07;4.53;;;;;;;18.42;nan;100061.72;5909222;24;20416;-91
2022/12/14 14:25:38;;;;;;;17.87;3.33;;;;;;;18.38;nan;100053.09;5876741;24;20490;-90
2022/12/14 14:28:10;;;;;;;19.63;3.70;;;;;;;18.33;nan;100047.50;5874904;24;20413;-91
2022/12/14 14:31:00;;;;;;;13.60;2.80;;;;;;;18.32;nan;100034.78;5899322;24;20878;-92
2022/12/14 14:33:57;;;;;;;22.60;2.87;;;;;;;18.32;nan;100023.69;5926172;24;20532;-94
2022/12/14 14:36:34;;;;;;;20.50;2.63;;;;;;;18.28;nan;100015.09;5882094;24;20947;-93
2022/12/14 14:39:07;;;;;;;26.77;2.70;;;;;;;18.33;nan;100019.00;5882686;24;20416;-93
2022/12/14 14:42:33;;;;;;;16.73;2.00;;;;;;;18.53;nan;99997.03;5902461;24;20913;-93
2022/12/14 14:49:23;;;;;;;8.73;2.70;;;;;;;19.28;nan;100007.81;5899209;24;20581;-93
2022/12/14 14:56:11;;;;;;;17.43;2.70;;;;;;;19.12;nan;99995.00;5899120;24;20427;-93
2022/12/14 14:59:13;;;;;;;12.90;2.37;;;;;;;19.03;nan;99991.09;5899029;24;20421;-93
2022/12/14 15:02:20;;;;;;;13.50;2.83;;;;;;;19.01;nan;100004.38;5954446;24;20519;-93
2022/12/14 15:04:51;;;;;;;19.40;2.20;;;;;;;18.95;nan;100009.03;5903022;24;20522;-93
2022/12/14 15:07:28;;;;;;;9.70;2.53;;;;;;;18.98;nan;100011.25;5862316;24;20449;-93
2022/12/14 15:10:36;;;;;;;8.80;1.60;;;;;;;18.86;nan;99985.69;5860353;24;20431;-94
2022/12/14 15:13:26;;;;;;;15.87;1.73;;;;;;;19.02;nan;100008.81;5914830;23;20424;-93
2022/12/14 15:16:32;;;;;;;16.37;2.20;;;;;;;19.15;nan;100016.63;6015133;23;20448;-93
2022/12/14 15:19:39;;;;;;;9.33;1.43;;;;;;;19.46;nan;100009.28;6056146;23;20888;-93
2022/12/14 15:22:44;;;;;;;11.43;1.90;;;;;;;19.76;nan;100005.84;6125534;23;20422;-93
2022/12/14 15:25:27;;;;;;;24.67;2.83;;;;;;;19.76;nan;100005.84;6125400;23;20437;-93
2022/12/14 15:28:30;;;;;;;16.60;2.00;;;;;;;19.57;nan;100011.06;6101800;23;20418;-93
2022/12/14 15:31:06;;;;;;;12.53;2.27;;;;;;;19.52;nan;100015.72;6078383;23;20413;-93
2022/12/14 15:33:54;;;;;;;13.70;2.20;;;;;;;19.45;nan;99995.69;6077564;23;20412;-94
2022/12/14 15:36:36;;;;;;;19.63;3.40;;;;;;;19.49;nan;99981.03;6077232;23;20446;-94
2022/12/14 15:39:39;;;;;;;20.60;2.53;;;;;;;19.71;nan;100007.75;6101914;23;20493;-93
2022/12/14 15:42:59;;;;;;;12.67;3.20;;;;;;;19.88;nan;99995.34;6102301;23;20752;-93
2022/12/14 15:46:20;;;;;;;24.70;5.37;;;;;;;19.95;nan;99987.59;6014622;23;20531;-93
2022/12/14 15:49:02;;;;;;;16.83;3.03;;;;;;;19.81;nan;99966.22;6038076;23;20465;-93
2022/12/14 15:51:41;;;;;;;24.33;2.67;;;;;;;19.81;nan;99975.38;5992693;23;20544;-94
2022/12/14 15:54:22;;;;;;;18.70;2.63;;;;;;;19.76;nan;99971.75;5992196;23;20480;-94
2022/12/14 15:57:21;;;;;;;24.27;3.20;;;;;;;19.73;nan;99983.38;6014334;23;20495;-93
2022/12/14 15:59:59;;;;;;;19.40;2.50;;;;;;;19.63;nan;99970.28;6014783;23;20483;-94
2022/12/14 16:02:36;;;;;;;17.53;3.20;;;;;;;19.57;nan;99966.69;6014939;23;20782;-93
2022/12/14 16:05:25;;;;;;;14.33;3.00;;;;;;;19.48;nan;99965.50;6015134;23;20412;-93
2022/12/14 16:07:54;;;;;;;19.50;3.37;;;;;;;19.30;nan;99950.19;6014846;23;20423;-94
2022/12/14 16:10:47;;;;;;;17.50;2.80;;;;;;;19.38;nan;99959.09;5991591;23;20533;-94
2022/12/14 16:13:53;;;;;;;18.07;4.43;;;;;;;19.25;nan;99943.78;6014158;23;20409;-93
2022/12/14 16:16:39;;;;;;;22.77;3.60;;;;;;;19.25;nan;99961.25;6037610;23;20518;-93
2022/12/14 16:19:27;;;;;;;17.50;3.70;;;;;;;19.17;nan;99952.63;6015864;23;20771;-93
2022/12/14 16:22:19;;;;;;;14.23;2.90;;;;;;;18.97;nan;99947.84;6117132;23;20919;-93
2022/12/14 16:25:20;;;;;;;17.00;3.10;;;;;;;18.82;nan;99950.50;6084741;23;20424;-93
2022/12/14 16:28:24;;;;;;;21.37;2.80;;;;;;;18.60;nan;99948.72;6157306;23;20492;-93
2022/12/14 16:31:01;;;;;;;26.60;4.47;;;;;;;18.35;nan;99926.34;6157148;23;20419;-93
2022/12/14 16:33:33;;;;;;;13.37;3.20;;;;;;;18.25;nan;99934.56;6156350;23;20904;-92
2022/12/14 16:40:35;;;;;;;20.97;5.33;;;;;;;18.03;nan;99951.25;6156885;23;20408;-93
2022/12/14 16:43:27;;;;;;;22.33;5.40;;;;;;;17.93;nan;99951.97;6181238;23;20405;-93
2022/12/14 16:46:09;;;;;;;24.57;5.57;;;;;;;17.87;nan;99933.69;6104094;23;20413;-94
2022/12/14 16:48:42;;;;;;;20.33;5.90;;;;;;;17.76;nan;99926.38;6127251;23;20422;-93
2022/12/14 16:51:36;;;;;;;32.73;12.40;;;;;;;17.84;nan;99936.13;6104606;23;20410;-93
2022/12/14 16:54:36;;;;;;;28.73;10.27;;;;;;;17.79;nan;99931.38;6068401;23;20460;-92
2022/12/14 16:57:25;;;;;;;30.70;9.93;;;;;;;17.71;nan;99917.19;6020950;23;20555;-93
2022/12/14 17:03:49;;;;;;;26.87;4.23;;;;;;;17.79;nan;99997.72;6068515;23;20483;-93
2022/12/14 17:06:23;;;;;;;18.57;3.20;;;;;;;17.66;nan;99998.16;6020677;23;20507;-92
2022/12/14 17:09:29;;;;;;;17.70;2.67;;;;;;;17.35;nan;99983.06;6021389;23;20419;-92
2022/12/14 17:12:13;;;;;;;14.10;1.63;;;;;;;17.06;nan;99981.59;6053722;23;20421;-93
2022/12/14 17:14:46;;;;;;;13.80;2.20;;;;;;;16.84;nan;99979.63;6102348;23;20742;-93
2022/12/14 17:17:34;;;;;;;11.70;2.20;;;;;;;16.63;nan;99982.31;6145252;23;21018;-93
2022/12/14 17:20:35;;;;;;;18.63;2.80;;;;;;;16.45;nan;99981.47;6126984;23;20526;-92
2022/12/14 17:23:03;;;;;;;12.80;2.10;;;;;;;16.30;nan;99972.97;6103156;23;20406;-93
2022/12/14 17:25:34;;;;;;;13.40;2.70;;;;;;;16.23;nan;99958.50;6103144;23;20409;-93
2022/12/14 17:28:27;;;;;;;13.93;2.47;;;;;;;16.17;nan;99957.56;6126819;23;20496;-93
2022/12/14 17:31:18;;;;;;;17.60;2.47;;;;;;;16.01;nan;99929.97;6151225;23;20418;-93
2022/12/14 17:33:47;;;;;;;17.50;2.67;;;;;;;16.00;nan;99939.34;6126623;23;20719;-93
2022/12/14 17:36:31;;;;;;;13.23;2.20;;;;;;;15.92;nan;99937.84;6102214;23;20418;-93
2022/12/14 17:39:24;;;;;;;16.40;2.40;;;;;;;16.00;nan;99961.38;6102557;23;20429;-93
2022/12/14 17:42:00;;;;;;;23.47;3.57;;;;;;;15.86;nan;99933.31;6150826;23;20422;-93
2022/12/14 17:44:29;;;;;;;22.37;3.00;;;;;;;15.78;nan;99915.25;6114365;23;20436;-93
2022/12/14 17:47:05;;;;;;;19.17;3.37;;;;;;;15.92;nan;99931.50;6156451;23;20406;-93
2022/12/14 17:49:35;;;;;;;25.63;4.40;;;;;;;15.89;nan;99938.34;6130878;23;20416;-94
2022/12/14 17:52:19;;;;;;;19.20;4.20;;;;;;;15.70;nan;99923.09;6131955;23;20393;-92
2022/12/14 17:54:58;;;;;;;17.27;2.90;;;;;;;15.78;nan;99942.81;6156379;23;20491;-93
2022/12/14 17:57:48;;;;;;;24.70;4.43;;;;;;;15.74;nan;99938.91;6131291;23;20507;-93
2022/12/14 18:03:57;;;;;;;23.57;5.47;;;;;;;15.67;nan;99940.13;6155373;23;20417;-93
2022/12/14 18:06:50;;;;;;;24.67;5.43;;;;;;;15.64;nan;99941.44;5986800;23;20493;-93
2022/12/14 18:09:27;;;;;;;24.43;4.77;;;;;;;15.57;nan;99948.22;5987077;23;20492;-92
2022/12/14 18:12:16;;;;;;;13.90;3.23;;;;;;;15.61;nan;99952.97;5963302;23;20492;-90
2022/12/14 18:15:14;;;;;;;16.83;4.43;;;;;;;15.47;nan;99933.13;5988814;23;20422;-91
2022/12/14 18:17:43;;;;;;;24.00;5.50;;;;;;;15.59;nan;99944.09;5963362;23;20490;-90
2022/12/14 18:20:13;;;;;;;28.27;8.37;;;;;;;15.63;nan;99950.78;6010131;23;20481;-91
2022/12/14 18:22:44;;;;;;;26.97;5.67;;;;;;;15.62;nan;99943.63;5962831;23;20426;-91
2022/12/14 18:25:38;;;;;;;24.30;5.20;;;;;;;15.62;nan;99943.63;5970119;23;20494;-91
2022/12/14 18:28:10;;;;;;;65.60;32.17;;;;;;;15.54;nan;99931.06;6044181;23;20482;-90
2022/12/14 18:30:43;;;;;;;101.53;37.63;;;;;;;15.63;nan;99945.28;5997720;23;20396;-90
2022/12/14 18:33:47;;;;;;;58.17;21.03;;;;;;;15.62;nan;99943.63;6021839;23;20407;-92
2022/12/14 18:36:21;;;;;;;38.63;15.30;;;;;;;15.54;nan;99924.72;6066378;23;20752;-91
2022/12/14 18:39:16;;;;;;;33.13;9.20;;;;;;;15.42;nan;99918.41;5995745;23;20423;-91
2022/12/14 18:41:53;;;;;;;34.23;14.80;;;;;;;15.51;nan;99930.72;5952532;24;20502;-91
2022/12/14 19:00:58;;;;;;;36.70;11.17;;;;;;;15.49;nan;99928.19;5953707;24;20506;-91
2022/12/14 19:03:30;;;;;;;28.93;9.57;;;;;;;15.54;nan;99938.50;5929675;24;20978;-94
2022/12/14 19:06:03;;;;;;;34.20;10.00;;;;;;;15.49;nan;99944.72;5930014;24;20440;-92
2022/12/14 19:09:27;;;;;;;22.43;7.30;;;;;;;15.49;nan;99952.16;5982591;24;20418;-93
2022/12/14 19:11:56;;;;;;;27.70;8.40;;;;;;;15.44;nan;99946.53;5956873;24;20422;-92
2022/12/14 19:14:24;;;;;;;27.93;7.20;;;;;;;15.33;nan;99928.16;5958532;24;20470;-92
2022/12/14 19:16:55;;;;;;;20.53;6.20;;;;;;;15.39;nan;99949.22;5935312;24;20442;-92
2022/12/14 19:19:23;;;;;;;17.40;5.27;;;;;;;15.29;nan;99951.75;5975337;23;20947;-92
2022/12/14 19:21:56;;;;;;;27.00;8.40;;;;;;;15.23;nan;99949.97;6048085;23;20480;-92
2022/12/14 19:24:24;;;;;;;26.23;5.90;;;;;;;15.07;nan;99924.88;6077204;23;20497;-92
2022/12/14 19:26:52;;;;;;;15.03;4.70;;;;;;;15.06;nan;99934.22;6101590;23;20394;-92
2022/12/14 19:29:27;;;;;;;18.00;4.30;;;;;;;15.07;nan;99941.38;6101154;23;20908;-94
2022/12/14 19:31:58;;;;;;;19.07;5.90;;;;;;;14.96;nan;99931.25;6125337;23;20429;-93
2022/12/14 19:34:35;;;;;;;21.20;6.00;;;;;;;14.95;nan;99932.31;6102071;23;20405;-91
2022/12/14 19:37:03;;;;;;;15.70;4.77;;;;;;;14.92;nan;99946.56;6100087;23;20963;-90
2022/12/14 19:39:33;;;;;;;16.40;5.60;;;;;;;14.88;nan;99941.78;6076933;23;20489;-92
2022/12/14 19:42:12;;;;;;;21.20;5.63;;;;;;;14.82;nan;99930.66;6102394;23;20543;-92
2022/12/14 19:44:41;;;;;;;19.67;6.03;;;;;;;14.78;nan;99928.66;6101982;23;20737;-91
2022/12/14 19:47:13;;;;;;;15.53;4.27;;;;;;;14.75;nan;99937.38;6101641;23;20421;-92
2022/12/14 19:49:48;;;;;;;15.83;3.70;;;;;;;14.77;nan;99943.47;6103001;23;20405;-93
2022/12/14 19:52:17;;;;;;;20.80;5.10;;;;;;;14.69;nan;99944.69;6126154;23;20469;-92
2022/12/14 19:54:56;;;;;;;19.73;8.70;;;;;;;14.58;nan;99919.94;6103580;23;20873;-95
2022/12/14 19:57:32;;;;;;;27.67;9.87;;;;;;;14.62;nan;99932.16;6128815;23;21011;-93
2022/12/14 20:00:25;;;;;;;38.87;11.23;;;;;;;14.62;nan;99934.91;6123323;23;20451;-94
2022/12/14 20:03:07;;;;;;;16.40;8.70;;;;;;;14.50;nan;99930.22;6109476;23;20492;-92
2022/12/14 20:05:54;;;;;;;17.27;7.40;;;;;;;14.44;nan;99922.91;6156228;23;20468;-93
2022/12/14 20:08:42;;;;;;;22.10;7.10;;;;;;;14.49;nan;99931.28;6135730;23;20413;-93
2022/12/14 20:11:10;;;;;;;22.37;7.40;;;;;;;14.37;nan;99918.59;6132643;23;20408;-94
2022/12/14 20:14:01;;;;;;;15.03;7.50;;;;;;;14.44;nan;99927.59;6131826;23;20496;-94
2022/12/14 20:16:30;;;;;;;24.57;6.90;;;;;;;14.42;nan;99922.34;6132819;23;20915;-92
2022/12/14 20:19:07;;;;;;;22.77;7.00;;;;;;;14.43;nan;99926.75;6132573;23;20495;-93
2022/12/14 20:21:49;;;;;;;25.00;7.07;;;;;;;14.44;nan;99917.41;6131426;23;20487;-92
2022/12/14 20:24:52;;;;;;;25.80;7.73;;;;;;;14.60;nan;99915.03;6108087;23;20385;-93
2022/12/14 20:27:52;;;;;;;20.73;6.67;;;;;;;14.69;nan;99910.84;6155970;23;20475;-94
2022/12/14 20:30:23;;;;;;;18.40;5.63;;;;;;;14.75;nan;99907.13;6155944;23;20413;-93
2022/12/14 20:33:05;;;;;;;24.27;7.10;;;;;;;14.79;nan;99894.56;6155648;23;20432;-93
2022/12/14 20:35:50;;;;;;;23.53;6.80;;;;;;;14.81;nan;99887.75;6110234;23;20423;-93
2022/12/14 20:38:21;;;;;;;22.73;8.20;;;;;;;14.77;nan;99871.97;6156703;23;20515;-94
2022/12/14 20:41:02;;;;;;;29.00;8.43;;;;;;;14.93;nan;99901.47;6157071;23;20415;-93
2022/12/14 20:43:33;;;;;;;31.37;8.60;;;;;;;14.95;nan;99906.72;6110213;23;20467;-95
2022/12/14 20:46:28;;;;;;;32.30;9.03;;;;;;;14.99;nan;99900.50;6107619;23;20413;-95
2022/12/14 20:49:05;;;;;;;134.23;42.53;;;;;;;14.97;nan;99886.16;6181190;23;20539;-95
2022/12/14 20:51:36;;;;;;;60.27;24.33;;;;;;;15.07;nan;99897.34;6084508;23;20413;-94
2022/12/14 20:54:12;;;;;;;53.17;13.77;;;;;;;15.12;nan;99883.69;6132322;23;20443;-94
2022/12/14 20:56:52;;;;;;;28.00;8.10;;;;;;;15.05;nan;99860.13;6130927;23;20397;-94
2022/12/14 20:59:20;;;;;;;27.73;6.23;;;;;;;15.21;nan;99889.63;6156067;23;20455;-94
2022/12/14 21:01:52;;;;;;;24.90;5.03;;;;;;;15.16;nan;99884.88;6132431;23;20409;-94
2022/12/14 21:04:47;;;;;;;31.83;5.87;;;;;;;15.30;nan;99915.72;6061624;23;20473;-94
2022/12/14 21:07:24;;;;;;;23.23;4.40;;;;;;;15.29;nan;99913.19;6156892;23;20424;-94
2022/12/14 21:09:58;;;;;;;27.53;4.83;;;;;;;15.25;nan;99873.47;6158582;23;20411;-94
2022/12/14 21:12:39;;;;;;;22.93;3.60;;;;;;;15.35;nan;99890.19;6132783;23;20427;-95
2022/12/14 21:19:07;;;;;;;16.73;3.67;;;;;;;15.36;nan;99883.63;6157580;23;20420;-96
2022/12/14 21:25:44;;;;;;;17.97;4.17;;;;;;;15.34;nan;99853.56;6157485;23;20451;-96
2022/12/14 21:36:07;;;;;;;20.87;4.97;;;;;;;15.20;nan;99806.22;6157392;23;20380;-95
2022/12/14 21:39:16;;;;;;;23.47;8.20;;;;;;;15.26;nan;99803.56;6132346;23;20476;-95
2022/12/14 21:42:12;;;;;;;22.93;7.23;;;;;;;15.26;nan;99793.38;6180615;23;20415;-95
2022/12/14 21:48:49;;;;;;;15.83;3.33;;;;;;;15.23;nan;99744.34;6102423;23;20378;-92
2022/12/14 21:51:34;;;;;;;14.00;3.37;;;;;;;15.40;nan;99736.06;6109753;23;20413;-95
2022/12/14 21:54:03;;;;;;;17.93;3.13;;;;;;;15.41;nan;99784.56;6156160;23;20413;-93
2022/12/14 21:59:34;;;;;;;11.73;3.30;;;;;;;15.49;nan;99839.25;6134981;23;21014;-94
2022/12/14 22:02:14;;;;;;;16.77;3.10;;;;;;;15.34;nan;99830.72;6155517;23;20496;-92
2022/12/14 22:04:57;;;;;;;11.60;3.10;;;;;;;15.41;nan;99845.97;6108694;23;20413;-93
2022/12/14 22:07:33;;;;;;;26.10;3.83;;;;;;;15.48;nan;99865.09;6128890;23;20409;-95
2022/12/14 22:10:05;;;;;;;19.57;2.80;;;;;;;15.48;nan;99870.59;6155344;23;20417;-93
2022/12/14 22:12:33;;;;;;;17.27;2.97;;;;;;;15.48;nan;99874.19;6156340;23;20420;-94
2022/12/14 22:15:11;;;;;;;16.40;2.83;;;;;;;15.36;nan;99867.09;6106579;23;20417;-95
2022/12/14 22:17:39;;;;;;;19.33;3.00;;;;;;;15.33;nan;99875.84;6155297;23;20432;-95
2022/12/14 22:20:09;;;;;;;13.33;2.33;;;;;;;15.34;nan;99886.63;6107500;23;20492;-95
2022/12/14 22:22:50;;;;;;;15.27;2.53;;;;;;;15.46;nan;99906.66;6132103;23;20471;-94
2022/12/14 22:25:32;;;;;;;24.80;4.00;;;;;;;15.49;nan;99917.19;6157282;23;20479;-96
2022/12/14 22:28:23;;;;;;;15.53;3.17;;;;;;;15.52;nan;99927.72;6118860;23;20481;-93
2022/12/14 22:31:03;;;;;;;21.83;3.83;;;;;;;15.38;nan;99909.00;6101372;23;20963;-95
2022/12/14 22:33:46;;;;;;;25.07;3.27;;;;;;;15.41;nan;99922.25;6101440;23;20437;-94
2022/12/14 22:36:16;;;;;;;24.10;3.50;;;;;;;15.40;nan;99918.66;6055135;23;20394;-93
2022/12/14 22:38:44;;;;;;;21.57;4.00;;;;;;;15.39;nan;99927.19;6054284;23;20606;-93
2022/12/14 22:41:14;;;;;;;17.77;2.70;;;;;;;15.36;nan;99923.00;6053579;23;20429;-94
2022/12/14 22:43:45;;;;;;;8.47;2.20;;;;;;;15.30;nan;99914.88;6101245;23;20406;-93
2022/12/14 22:46:15;;;;;;;17.43;2.37;;;;;;;15.39;nan;99933.53;6077190;23;20822;-93
2022/12/14 22:48:43;;;;;;;21.23;3.07;;;;;;;15.33;nan;99926.25;6053883;23;20940;-95
2022/12/14 22:51:12;;;;;;;18.00;3.07;;;;;;;15.26;nan;99906.25;6077906;23;20429;-94
2022/12/14 22:53:49;;;;;;;17.50;3.00;;;;;;;15.30;nan;99912.13;6077253;23;20406;-93
2022/12/14 22:56:39;;;;;;;23.47;2.57;;;;;;;15.31;nan;99916.53;6077288;23;20414;-93
2022/12/14 22:59:16;;;;;;;12.87;2.20;;;;;;;15.32;nan;99926.47;6100415;23;20584;-93
2022/12/14 23:02:10;;;;;;;10.47;2.23;;;;;;;15.32;nan;99932.00;6078243;23;20568;-94
2022/12/14 23:04:42;;;;;;;19.00;2.27;;;;;;;15.30;nan;99926.72;6106116;23;20412;-93
2022/12/14 23:07:09;;;;;;;17.07;2.60;;;;;;;15.25;nan;99920.25;6154320;23;20409;-92
